sensor_id;sensor_type;location;lat;lon;timestamp;P1;durP1;ratioP1;P2;durP2;ratioP2
59555;SDS011;45374;52.746;6.304;2023-02-25T00:00:15;17.65;;;2.30;;
59555;SDS011;45374;52.746;6.304;2023-02-25T00:02:46;14.50;;;2.22;;
59555;SDS011;45374;52.746;6.304;2023-02-25T00:05:15;16.95;;;2.20;;
59555;SDS011;45374;52.746;6.304;2023-02-25T00:07:41;14.70;;;2.53;;
59555;SDS011;45374;52.746;6.304;2023-02-25T00:10:08;13.23;;;3.00;;
59555;SDS011;45374;52.746;6.304;2023-02-25T00:12:39;10.30;;;1.50;;
59555;SDS011;45374;52.746;6.304;2023-02-25T00:15:05;15.35;;;1.80;;
59555;SDS011;45374;52.746;6.304;2023-02-25T00:17:31;17.40;;;2.10;;
59555;SDS011;45374;52.746;6.304;2023-02-25T00:19:57;18.33;;;3.17;;
59555;SDS011;45374;52.746;6.304;2023-02-25T00:22:23;13.57;;;1.50;;
59555;SDS011;45374;52.746;6.304;2023-02-25T00:24:53;15.30;;;1.95;;
59555;SDS011;45374;52.746;6.304;2023-02-25T00:27:19;24.00;;;2.55;;
59555;SDS011;45374;52.746;6.304;2023-02-25T00:32:16;13.73;;;2.55;;
59555;SDS011;45374;52.746;6.304;2023-02-25T00:34:41;16.10;;;2.83;;
59555;SDS011;45374;52.746;6.304;2023-02-25T00:37:07;10.15;;;1.88;;
59555;SDS011;45374;52.746;6.304;2023-02-25T00:39:32;18.45;;;2.50;;
59555;SDS011;45374;52.746;6.304;2023-02-25T00:42:12;18.15;;;3.22;;
59555;SDS011;45374;52.746;6.304;2023-02-25T00:44:39;18.15;;;2.58;;
59555;SDS011;45374;52.746;6.304;2023-02-25T00:47:07;21.85;;;2.17;;
59555;SDS011;45374;52.746;6.304;2023-02-25T00:49:32;13.93;;;2.50;;
59555;SDS011;45374;52.746;6.304;2023-02-25T00:51:58;13.35;;;3.35;;
59555;SDS011;45374;52.746;6.304;2023-02-25T00:54:24;11.43;;;2.30;;
59555;SDS011;45374;52.746;6.304;2023-02-25T00:56:50;15.32;;;1.95;;
59555;SDS011;45374;52.746;6.304;2023-02-25T00:59:15;12.48;;;1.95;;
59555;SDS011;45374;52.746;6.304;2023-02-25T01:01:42;27.75;;;3.53;;
59555;SDS011;45374;52.746;6.304;2023-02-25T01:04:08;24.70;;;2.45;;
59555;SDS011;45374;52.746;6.304;2023-02-25T01:06:34;21.90;;;2.55;;
59555;SDS011;45374;52.746;6.304;2023-02-25T01:09:02;20.80;;;2.20;;
59555;SDS011;45374;52.746;6.304;2023-02-25T01:11:32;7.80;;;1.60;;
59555;SDS011;45374;52.746;6.304;2023-02-25T01:14:00;18.27;;;2.58;;
59555;SDS011;45374;52.746;6.304;2023-02-25T01:16:29;18.83;;;2.90;;
59555;SDS011;45374;52.746;6.304;2023-02-25T01:18:57;16.05;;;2.47;;
59555;SDS011;45374;52.746;6.304;2023-02-25T01:21:26;17.77;;;2.33;;
59555;SDS011;45374;52.746;6.304;2023-02-25T01:23:59;21.33;;;3.25;;
59555;SDS011;45374;52.746;6.304;2023-02-25T01:26:28;15.40;;;2.97;;
59555;SDS011;45374;52.746;6.304;2023-02-25T01:28:55;16.40;;;2.65;;
59555;SDS011;45374;52.746;6.304;2023-02-25T01:31:22;15.30;;;2.85;;
59555;SDS011;45374;52.746;6.304;2023-02-25T01:33:57;17.73;;;2.58;;
59555;SDS011;45374;52.746;6.304;2023-02-25T01:36:24;19.48;;;2.35;;
59555;SDS011;45374;52.746;6.304;2023-02-25T01:38:51;12.32;;;2.22;;
59555;SDS011;45374;52.746;6.304;2023-02-25T01:41:16;21.23;;;2.22;;
59555;SDS011;45374;52.746;6.304;2023-02-25T01:43:42;17.27;;;2.70;;
59555;SDS011;45374;52.746;6.304;2023-02-25T01:46:25;24.92;;;3.03;;
59555;SDS011;45374;52.746;6.304;2023-02-25T01:48:51;16.92;;;2.80;;
59555;SDS011;45374;52.746;6.304;2023-02-25T01:51:16;17.60;;;2.75;;
59555;SDS011;45374;52.746;6.304;2023-02-25T01:53:43;19.48;;;1.88;;
59555;SDS011;45374;52.746;6.304;2023-02-25T01:56:11;13.30;;;1.80;;
59555;SDS011;45374;52.746;6.304;2023-02-25T01:58:44;16.30;;;2.40;;
59555;SDS011;45374;52.746;6.304;2023-02-25T02:01:11;18.25;;;2.65;;
59555;SDS011;45374;52.746;6.304;2023-02-25T02:03:41;12.25;;;2.33;;
59555;SDS011;45374;52.746;6.304;2023-02-25T02:06:26;10.95;;;2.40;;
59555;SDS011;45374;52.746;6.304;2023-02-25T02:08:55;26.77;;;4.07;;
59555;SDS011;45374;52.746;6.304;2023-02-25T02:11:22;15.63;;;3.35;;
59555;SDS011;45374;52.746;6.304;2023-02-25T02:13:49;21.17;;;3.25;;
59555;SDS011;45374;52.746;6.304;2023-02-25T02:16:43;15.07;;;3.03;;
59555;SDS011;45374;52.746;6.304;2023-02-25T02:19:39;17.70;;;2.60;;
59555;SDS011;45374;52.746;6.304;2023-02-25T02:22:20;16.85;;;2.88;;
59555;SDS011;45374;52.746;6.304;2023-02-25T02:27:43;21.30;;;2.88;;
59555;SDS011;45374;52.746;6.304;2023-02-25T02:33:17;17.42;;;2.58;;
59555;SDS011;45374;52.746;6.304;2023-02-25T02:38:31;19.38;;;2.70;;
59555;SDS011;45374;52.746;6.304;2023-02-25T02:43:57;17.25;;;2.58;;
59555;SDS011;45374;52.746;6.304;2023-02-25T02:46:34;19.08;;;2.55;;
59555;SDS011;45374;52.746;6.304;2023-02-25T02:49:14;22.95;;;2.75;;
59555;SDS011;45374;52.746;6.304;2023-02-25T02:51:58;26.13;;;3.45;;
59555;SDS011;45374;52.746;6.304;2023-02-25T02:54:34;22.60;;;2.70;;
59555;SDS011;45374;52.746;6.304;2023-02-25T02:57:02;18.80;;;2.50;;
59555;SDS011;45374;52.746;6.304;2023-02-25T02:59:31;26.45;;;2.65;;
59555;SDS011;45374;52.746;6.304;2023-02-25T03:02:03;21.17;;;3.05;;
59555;SDS011;45374;52.746;6.304;2023-02-25T03:04:37;12.50;;;2.38;;
59555;SDS011;45374;52.746;6.304;2023-02-25T03:07:07;27.38;;;4.10;;
59555;SDS011;45374;52.746;6.304;2023-02-25T03:09:36;14.68;;;2.63;;
59555;SDS011;45374;52.746;6.304;2023-02-25T03:12:03;14.15;;;2.08;;
59555;SDS011;45374;52.746;6.304;2023-02-25T03:14:29;18.33;;;2.85;;
59555;SDS011;45374;52.746;6.304;2023-02-25T03:17:00;13.05;;;2.13;;
59555;SDS011;45374;52.746;6.304;2023-02-25T03:19:31;16.58;;;1.77;;
59555;SDS011;45374;52.746;6.304;2023-02-25T03:22:12;12.93;;;2.45;;
59555;SDS011;45374;52.746;6.304;2023-02-25T03:25:07;14.38;;;2.28;;
59555;SDS011;45374;52.746;6.304;2023-02-25T03:27:48;11.90;;;2.15;;
59555;SDS011;45374;52.746;6.304;2023-02-25T03:30:20;23.15;;;3.15;;
59555;SDS011;45374;52.746;6.304;2023-02-25T03:33:08;19.23;;;2.83;;
59555;SDS011;45374;52.746;6.304;2023-02-25T03:35:38;15.40;;;1.85;;
59555;SDS011;45374;52.746;6.304;2023-02-25T03:38:10;14.60;;;1.48;;
59555;SDS011;45374;52.746;6.304;2023-02-25T03:40:40;14.98;;;1.83;;
59555;SDS011;45374;52.746;6.304;2023-02-25T03:43:12;17.63;;;3.10;;
59555;SDS011;45374;52.746;6.304;2023-02-25T03:45:54;20.67;;;2.30;;
59555;SDS011;45374;52.746;6.304;2023-02-25T03:48:20;11.25;;;1.90;;
59555;SDS011;45374;52.746;6.304;2023-02-25T03:50:50;25.10;;;4.35;;
59555;SDS011;45374;52.746;6.304;2023-02-25T03:56:10;22.67;;;2.90;;
59555;SDS011;45374;52.746;6.304;2023-02-25T03:58:37;15.13;;;2.22;;
59555;SDS011;45374;52.746;6.304;2023-02-25T04:01:06;14.88;;;2.10;;
59555;SDS011;45374;52.746;6.304;2023-02-25T04:03:36;12.43;;;1.63;;
59555;SDS011;45374;52.746;6.304;2023-02-25T04:06:02;23.73;;;2.85;;
59555;SDS011;45374;52.746;6.304;2023-02-25T04:08:28;11.00;;;1.92;;
59555;SDS011;45374;52.746;6.304;2023-02-25T04:10:53;15.07;;;3.03;;
59555;SDS011;45374;52.746;6.304;2023-02-25T04:13:19;17.27;;;3.63;;
59555;SDS011;45374;52.746;6.304;2023-02-25T04:15:45;21.08;;;2.28;;
59555;SDS011;45374;52.746;6.304;2023-02-25T04:18:12;9.18;;;1.80;;
59555;SDS011;45374;52.746;6.304;2023-02-25T04:20:38;15.65;;;2.58;;
59555;SDS011;45374;52.746;6.304;2023-02-25T04:23:05;14.77;;;2.65;;
59555;SDS011;45374;52.746;6.304;2023-02-25T04:25:32;14.73;;;1.77;;
59555;SDS011;45374;52.746;6.304;2023-02-25T04:27:58;17.42;;;2.75;;
59555;SDS011;45374;52.746;6.304;2023-02-25T04:30:23;12.93;;;1.95;;
59555;SDS011;45374;52.746;6.304;2023-02-25T04:32:49;15.38;;;1.88;;
59555;SDS011;45374;52.746;6.304;2023-02-25T04:35:15;12.30;;;1.55;;
59555;SDS011;45374;52.746;6.304;2023-02-25T04:37:41;17.08;;;2.88;;
59555;SDS011;45374;52.746;6.304;2023-02-25T04:40:09;14.23;;;2.47;;
59555;SDS011;45374;52.746;6.304;2023-02-25T04:42:38;13.98;;;2.17;;
59555;SDS011;45374;52.746;6.304;2023-02-25T04:45:04;8.82;;;1.92;;
59555;SDS011;45374;52.746;6.304;2023-02-25T04:47:31;17.00;;;2.00;;
59555;SDS011;45374;52.746;6.304;2023-02-25T04:49:57;12.52;;;1.98;;
59555;SDS011;45374;52.746;6.304;2023-02-25T04:52:23;13.07;;;1.63;;
59555;SDS011;45374;52.746;6.304;2023-02-25T04:54:48;10.75;;;2.25;;
59555;SDS011;45374;52.746;6.304;2023-02-25T04:57:14;5.85;;;1.90;;
59555;SDS011;45374;52.746;6.304;2023-02-25T04:59:40;11.50;;;1.85;;
59555;SDS011;45374;52.746;6.304;2023-02-25T05:02:06;9.02;;;1.45;;
59555;SDS011;45374;52.746;6.304;2023-02-25T05:04:32;11.60;;;2.17;;
59555;SDS011;45374;52.746;6.304;2023-02-25T05:07:02;6.82;;;1.23;;
59555;SDS011;45374;52.746;6.304;2023-02-25T05:09:28;8.93;;;1.25;;
59555;SDS011;45374;52.746;6.304;2023-02-25T05:11:54;7.57;;;0.90;;
59555;SDS011;45374;52.746;6.304;2023-02-25T05:14:20;7.25;;;1.38;;
59555;SDS011;45374;52.746;6.304;2023-02-25T05:16:46;14.35;;;1.75;;
59555;SDS011;45374;52.746;6.304;2023-02-25T05:19:16;12.23;;;1.20;;
59555;SDS011;45374;52.746;6.304;2023-02-25T05:21:47;14.20;;;1.65;;
59555;SDS011;45374;52.746;6.304;2023-02-25T05:24:16;9.38;;;1.73;;
59555;SDS011;45374;52.746;6.304;2023-02-25T05:26:42;16.40;;;1.90;;
59555;SDS011;45374;52.746;6.304;2023-02-25T05:29:08;14.75;;;2.30;;
59555;SDS011;45374;52.746;6.304;2023-02-25T05:31:35;13.57;;;2.15;;
59555;SDS011;45374;52.746;6.304;2023-02-25T05:34:01;17.98;;;2.55;;
59555;SDS011;45374;52.746;6.304;2023-02-25T05:36:27;13.88;;;1.80;;
59555;SDS011;45374;52.746;6.304;2023-02-25T05:38:53;11.27;;;1.45;;
59555;SDS011;45374;52.746;6.304;2023-02-25T05:41:20;17.85;;;1.95;;
59555;SDS011;45374;52.746;6.304;2023-02-25T05:43:46;15.30;;;2.75;;
59555;SDS011;45374;52.746;6.304;2023-02-25T05:46:12;16.80;;;2.80;;
59555;SDS011;45374;52.746;6.304;2023-02-25T05:48:39;4.13;;;1.13;;
59555;SDS011;45374;52.746;6.304;2023-02-25T05:51:07;3.60;;;0.85;;
59555;SDS011;45374;52.746;6.304;2023-02-25T05:53:36;10.43;;;1.23;;
59555;SDS011;45374;52.746;6.304;2023-02-25T05:56:03;4.38;;;1.25;;
59555;SDS011;45374;52.746;6.304;2023-02-25T05:58:29;9.85;;;1.33;;
59555;SDS011;45374;52.746;6.304;2023-02-25T06:00:55;10.13;;;1.48;;
59555;SDS011;45374;52.746;6.304;2023-02-25T06:03:21;4.65;;;0.93;;
59555;SDS011;45374;52.746;6.304;2023-02-25T06:05:46;14.77;;;1.58;;
59555;SDS011;45374;52.746;6.304;2023-02-25T06:08:12;12.18;;;1.50;;
59555;SDS011;45374;52.746;6.304;2023-02-25T06:10:40;11.05;;;2.25;;
59555;SDS011;45374;52.746;6.304;2023-02-25T06:13:06;13.98;;;1.92;;
59555;SDS011;45374;52.746;6.304;2023-02-25T06:15:35;18.83;;;2.05;;
59555;SDS011;45374;52.746;6.304;2023-02-25T06:18:02;7.20;;;1.73;;
59555;SDS011;45374;52.746;6.304;2023-02-25T06:20:27;15.18;;;2.13;;
59555;SDS011;45374;52.746;6.304;2023-02-25T06:22:53;12.85;;;2.10;;
59555;SDS011;45374;52.746;6.304;2023-02-25T06:25:19;16.70;;;2.03;;
59555;SDS011;45374;52.746;6.304;2023-02-25T06:27:44;18.00;;;1.75;;
59555;SDS011;45374;52.746;6.304;2023-02-25T06:30:10;15.48;;;1.77;;
59555;SDS011;45374;52.746;6.304;2023-02-25T06:32:36;14.85;;;2.00;;
59555;SDS011;45374;52.746;6.304;2023-02-25T06:38:34;15.00;;;1.80;;
59555;SDS011;45374;52.746;6.304;2023-02-25T06:41:04;10.48;;;1.73;;
59555;SDS011;45374;52.746;6.304;2023-02-25T06:43:30;9.63;;;1.98;;
59555;SDS011;45374;52.746;6.304;2023-02-25T06:45:56;9.23;;;1.75;;
59555;SDS011;45374;52.746;6.304;2023-02-25T06:48:21;9.18;;;1.38;;
59555;SDS011;45374;52.746;6.304;2023-02-25T06:50:47;6.47;;;1.10;;
59555;SDS011;45374;52.746;6.304;2023-02-25T06:53:13;4.85;;;0.77;;
59555;SDS011;45374;52.746;6.304;2023-02-25T06:55:39;5.90;;;0.82;;
59555;SDS011;45374;52.746;6.304;2023-02-25T06:58:05;3.72;;;0.55;;
59555;SDS011;45374;52.746;6.304;2023-02-25T07:00:31;7.32;;;0.68;;
59555;SDS011;45374;52.746;6.304;2023-02-25T07:02:57;6.50;;;1.10;;
59555;SDS011;45374;52.746;6.304;2023-02-25T07:05:22;2.40;;;0.60;;
59555;SDS011;45374;52.746;6.304;2023-02-25T07:07:48;5.93;;;0.95;;
59555;SDS011;45374;52.746;6.304;2023-02-25T07:10:13;4.72;;;1.10;;
59555;SDS011;45374;52.746;6.304;2023-02-25T07:12:39;5.45;;;0.93;;
59555;SDS011;45374;52.746;6.304;2023-02-25T07:15:05;5.28;;;0.82;;
59555;SDS011;45374;52.746;6.304;2023-02-25T07:17:31;4.32;;;0.60;;
59555;SDS011;45374;52.746;6.304;2023-02-25T07:19:56;5.07;;;1.10;;
59555;SDS011;45374;52.746;6.304;2023-02-25T07:22:22;3.85;;;0.98;;
59555;SDS011;45374;52.746;6.304;2023-02-25T07:24:47;7.95;;;1.15;;
59555;SDS011;45374;52.746;6.304;2023-02-25T07:27:14;6.20;;;1.10;;
59555;SDS011;45374;52.746;6.304;2023-02-25T07:29:40;8.48;;;1.05;;
59555;SDS011;45374;52.746;6.304;2023-02-25T07:32:05;6.20;;;0.85;;
59555;SDS011;45374;52.746;6.304;2023-02-25T07:34:33;5.25;;;1.20;;
59555;SDS011;45374;52.746;6.304;2023-02-25T07:36:59;5.32;;;1.20;;
59555;SDS011;45374;52.746;6.304;2023-02-25T07:39:25;6.72;;;0.90;;
59555;SDS011;45374;52.746;6.304;2023-02-25T07:41:51;6.15;;;1.45;;
59555;SDS011;45374;52.746;6.304;2023-02-25T07:44:16;4.70;;;0.70;;
59555;SDS011;45374;52.746;6.304;2023-02-25T07:46:42;3.58;;;0.77;;
59555;SDS011;45374;52.746;6.304;2023-02-25T07:49:08;6.20;;;0.70;;
59555;SDS011;45374;52.746;6.304;2023-02-25T07:51:33;3.30;;;0.77;;
59555;SDS011;45374;52.746;6.304;2023-02-25T07:53:59;3.72;;;0.70;;
59555;SDS011;45374;52.746;6.304;2023-02-25T07:56:26;3.55;;;0.60;;
59555;SDS011;45374;52.746;6.304;2023-02-25T07:58:52;5.85;;;0.80;;
59555;SDS011;45374;52.746;6.304;2023-02-25T08:03:44;5.45;;;1.33;;
59555;SDS011;45374;52.746;6.304;2023-02-25T08:06:18;5.82;;;1.58;;
59555;SDS011;45374;52.746;6.304;2023-02-25T08:08:46;3.70;;;0.60;;
59555;SDS011;45374;52.746;6.304;2023-02-25T08:11:14;5.05;;;1.05;;
59555;SDS011;45374;52.746;6.304;2023-02-25T08:13:40;7.35;;;1.02;;
59555;SDS011;45374;52.746;6.304;2023-02-25T08:16:07;3.63;;;0.80;;
59555;SDS011;45374;52.746;6.304;2023-02-25T08:18:34;4.68;;;1.00;;
59555;SDS011;45374;52.746;6.304;2023-02-25T08:21:00;1.80;;;0.50;;
59555;SDS011;45374;52.746;6.304;2023-02-25T08:23:26;5.15;;;0.77;;
59555;SDS011;45374;52.746;6.304;2023-02-25T08:25:52;3.13;;;0.57;;
59555;SDS011;45374;52.746;6.304;2023-02-25T08:28:19;4.10;;;0.80;;
59555;SDS011;45374;52.746;6.304;2023-02-25T08:30:47;7.05;;;1.10;;
59555;SDS011;45374;52.746;6.304;2023-02-25T08:33:13;6.22;;;0.93;;
59555;SDS011;45374;52.746;6.304;2023-02-25T08:35:39;4.70;;;1.20;;
59555;SDS011;45374;52.746;6.304;2023-02-25T08:38:04;7.43;;;1.33;;
59555;SDS011;45374;52.746;6.304;2023-02-25T08:40:30;5.25;;;1.17;;
59555;SDS011;45374;52.746;6.304;2023-02-25T08:42:56;7.63;;;1.38;;
59555;SDS011;45374;52.746;6.304;2023-02-25T08:45:21;7.28;;;1.30;;
59555;SDS011;45374;52.746;6.304;2023-02-25T08:47:47;8.68;;;1.45;;
59555;SDS011;45374;52.746;6.304;2023-02-25T08:50:13;8.30;;;1.25;;
59555;SDS011;45374;52.746;6.304;2023-02-25T08:52:41;6.65;;;1.38;;
59555;SDS011;45374;52.746;6.304;2023-02-25T08:55:08;3.63;;;0.80;;
59555;SDS011;45374;52.746;6.304;2023-02-25T08:57:35;8.25;;;1.48;;
59555;SDS011;45374;52.746;6.304;2023-02-25T09:00:02;12.23;;;1.45;;
59555;SDS011;45374;52.746;6.304;2023-02-25T09:02:30;10.10;;;1.55;;
59555;SDS011;45374;52.746;6.304;2023-02-25T09:04:56;5.53;;;0.85;;
59555;SDS011;45374;52.746;6.304;2023-02-25T09:07:21;3.60;;;1.10;;
59555;SDS011;45374;52.746;6.304;2023-02-25T09:09:47;7.78;;;1.63;;
59555;SDS011;45374;52.746;6.304;2023-02-25T09:12:13;8.05;;;1.17;;
59555;SDS011;45374;52.746;6.304;2023-02-25T09:14:38;5.93;;;1.13;;
59555;SDS011;45374;52.746;6.304;2023-02-25T09:17:04;7.47;;;1.13;;
59555;SDS011;45374;52.746;6.304;2023-02-25T09:19:31;7.00;;;1.00;;
59555;SDS011;45374;52.746;6.304;2023-02-25T09:21:57;12.27;;;1.40;;
59555;SDS011;45374;52.746;6.304;2023-02-25T09:24:23;8.55;;;1.80;;
59555;SDS011;45374;52.746;6.304;2023-02-25T09:26:50;12.75;;;1.33;;
59555;SDS011;45374;52.746;6.304;2023-02-25T09:29:16;5.93;;;1.17;;
59555;SDS011;45374;52.746;6.304;2023-02-25T09:31:41;13.50;;;1.50;;
59555;SDS011;45374;52.746;6.304;2023-02-25T09:34:08;6.85;;;1.23;;
59555;SDS011;45374;52.746;6.304;2023-02-25T09:36:36;8.60;;;1.65;;
59555;SDS011;45374;52.746;6.304;2023-02-25T09:39:01;7.40;;;1.20;;
59555;SDS011;45374;52.746;6.304;2023-02-25T09:44:32;11.88;;;1.40;;
59555;SDS011;45374;52.746;6.304;2023-02-25T09:47:03;11.95;;;1.67;;
59555;SDS011;45374;52.746;6.304;2023-02-25T09:49:37;9.20;;;1.58;;
59555;SDS011;45374;52.746;6.304;2023-02-25T09:52:11;8.10;;;1.17;;
59555;SDS011;45374;52.746;6.304;2023-02-25T09:54:44;12.05;;;1.92;;
59555;SDS011;45374;52.746;6.304;2023-02-25T09:57:13;8.15;;;1.70;;
59555;SDS011;45374;52.746;6.304;2023-02-25T09:59:43;11.20;;;1.70;;
59555;SDS011;45374;52.746;6.304;2023-02-25T10:05:12;14.15;;;1.70;;
59555;SDS011;45374;52.746;6.304;2023-02-25T10:07:48;12.07;;;1.48;;
59555;SDS011;45374;52.746;6.304;2023-02-25T10:27:08;2.83;;;1.00;;
59555;SDS011;45374;52.746;6.304;2023-02-25T10:30:03;11.27;;;1.67;;
59555;SDS011;45374;52.746;6.304;2023-02-25T10:32:36;11.68;;;1.63;;
59555;SDS011;45374;52.746;6.304;2023-02-25T10:35:19;6.03;;;1.52;;
59555;SDS011;45374;52.746;6.304;2023-02-25T10:37:52;10.60;;;1.70;;
59555;SDS011;45374;52.746;6.304;2023-02-25T10:40:20;6.55;;;1.30;;
59555;SDS011;45374;52.746;6.304;2023-02-25T10:42:50;11.45;;;1.75;;
59555;SDS011;45374;52.746;6.304;2023-02-25T10:45:29;12.90;;;1.73;;
59555;SDS011;45374;52.746;6.304;2023-02-25T10:48:05;3.78;;;1.10;;
59555;SDS011;45374;52.746;6.304;2023-02-25T10:50:37;8.63;;;1.02;;
59555;SDS011;45374;52.746;6.304;2023-02-25T10:53:04;8.25;;;1.75;;
59555;SDS011;45374;52.746;6.304;2023-02-25T11:00:59;7.20;;;1.52;;
59555;SDS011;45374;52.746;6.304;2023-02-25T11:03:51;7.15;;;1.30;;
59555;SDS011;45374;52.746;6.304;2023-02-25T11:08:51;6.50;;;1.65;;
59555;SDS011;45374;52.746;6.304;2023-02-25T11:11:22;8.00;;;1.48;;
59555;SDS011;45374;52.746;6.304;2023-02-25T11:13:54;8.02;;;1.35;;
59555;SDS011;45374;52.746;6.304;2023-02-25T11:16:25;9.70;;;1.63;;
59555;SDS011;45374;52.746;6.304;2023-02-25T11:18:53;17.52;;;2.17;;
59555;SDS011;45374;52.746;6.304;2023-02-25T11:21:34;10.88;;;1.80;;
59555;SDS011;45374;52.746;6.304;2023-02-25T11:24:09;10.63;;;1.42;;
59555;SDS011;45374;52.746;6.304;2023-02-25T11:26:40;9.77;;;1.83;;
59555;SDS011;45374;52.746;6.304;2023-02-25T11:29:16;3.40;;;0.90;;
59555;SDS011;45374;52.746;6.304;2023-02-25T11:32:06;4.60;;;0.90;;
59555;SDS011;45374;52.746;6.304;2023-02-25T11:34:38;1.50;;;0.63;;
59555;SDS011;45374;52.746;6.304;2023-02-25T11:37:33;3.72;;;0.70;;
59555;SDS011;45374;52.746;6.304;2023-02-25T11:40:25;6.50;;;0.93;;
59555;SDS011;45374;52.746;6.304;2023-02-25T11:45:34;2.97;;;0.85;;
59555;SDS011;45374;52.746;6.304;2023-02-25T11:48:04;5.93;;;1.15;;
59555;SDS011;45374;52.746;6.304;2023-02-25T11:50:49;4.22;;;0.77;;
59555;SDS011;45374;52.746;6.304;2023-02-25T11:58:47;2.90;;;0.80;;
59555;SDS011;45374;52.746;6.304;2023-02-25T12:01:22;5.38;;;0.98;;
59555;SDS011;45374;52.746;6.304;2023-02-25T12:41:08;3.08;;;0.73;;
59555;SDS011;45374;52.746;6.304;2023-02-25T12:47:07;4.88;;;0.88;;
59555;SDS011;45374;52.746;6.304;2023-02-25T12:52:06;3.47;;;0.80;;
59555;SDS011;45374;52.746;6.304;2023-02-25T12:57:16;7.40;;;0.75;;
59555;SDS011;45374;52.746;6.304;2023-02-25T12:59:56;3.28;;;0.77;;
59555;SDS011;45374;52.746;6.304;2023-02-25T13:05:20;8.50;;;1.35;;
59555;SDS011;45374;52.746;6.304;2023-02-25T13:27:29;5.22;;;0.80;;
59555;SDS011;45374;52.746;6.304;2023-02-25T13:35:36;6.60;;;1.30;;
59555;SDS011;45374;52.746;6.304;2023-02-25T13:38:36;1.75;;;0.75;;
59555;SDS011;45374;52.746;6.304;2023-02-25T13:44:16;2.60;;;0.70;;
59555;SDS011;45374;52.746;6.304;2023-02-25T14:09:28;8.57;;;1.50;;
59555;SDS011;45374;52.746;6.304;2023-02-25T14:12:08;8.32;;;1.58;;
59555;SDS011;45374;52.746;6.304;2023-02-25T14:17:57;12.77;;;2.35;;
59555;SDS011;45374;52.746;6.304;2023-02-25T14:20:42;4.03;;;1.10;;
59555;SDS011;45374;52.746;6.304;2023-02-25T14:23:26;7.68;;;1.17;;
59555;SDS011;45374;52.746;6.304;2023-02-25T14:26:12;5.82;;;1.02;;
59555;SDS011;45374;52.746;6.304;2023-02-25T14:34:25;6.45;;;1.15;;
59555;SDS011;45374;52.746;6.304;2023-02-25T14:40:22;6.15;;;1.00;;
59555;SDS011;45374;52.746;6.304;2023-02-25T14:45:52;5.57;;;1.10;;
59555;SDS011;45374;52.746;6.304;2023-02-25T14:59:56;6.95;;;1.10;;
59555;SDS011;45374;52.746;6.304;2023-02-25T15:21:33;7.28;;;0.90;;
59555;SDS011;45374;52.746;6.304;2023-02-25T15:24:02;4.38;;;1.00;;
59555;SDS011;45374;52.746;6.304;2023-02-25T15:26:44;5.47;;;1.08;;
59555;SDS011;45374;52.746;6.304;2023-02-25T15:29:18;6.20;;;1.17;;
59555;SDS011;45374;52.746;6.304;2023-02-25T15:34:54;4.90;;;1.23;;
59555;SDS011;45374;52.746;6.304;2023-02-25T15:37:32;8.80;;;1.20;;
59555;SDS011;45374;52.746;6.304;2023-02-25T15:40:00;3.22;;;0.60;;
59555;SDS011;45374;52.746;6.304;2023-02-25T15:53:07;6.55;;;1.15;;
59555;SDS011;45374;52.746;6.304;2023-02-25T15:55:45;8.65;;;1.10;;
59555;SDS011;45374;52.746;6.304;2023-02-25T16:06:03;9.15;;;1.23;;
59555;SDS011;45374;52.746;6.304;2023-02-25T16:14:18;4.22;;;0.82;;
59555;SDS011;45374;52.746;6.304;2023-02-25T16:17:03;9.30;;;1.50;;
59555;SDS011;45374;52.746;6.304;2023-02-25T16:19:35;8.73;;;1.65;;
59555;SDS011;45374;52.746;6.304;2023-02-25T16:22:04;6.85;;;1.20;;
59555;SDS011;45374;52.746;6.304;2023-02-25T16:24:36;9.60;;;1.30;;
59555;SDS011;45374;52.746;6.304;2023-02-25T16:27:12;6.15;;;1.30;;
59555;SDS011;45374;52.746;6.304;2023-02-25T16:35:33;6.03;;;1.00;;
59555;SDS011;45374;52.746;6.304;2023-02-25T16:40:29;5.60;;;1.38;;
59555;SDS011;45374;52.746;6.304;2023-02-25T16:43:03;5.55;;;1.30;;
59555;SDS011;45374;52.746;6.304;2023-02-25T16:45:40;7.30;;;1.40;;
59555;SDS011;45374;52.746;6.304;2023-02-25T16:48:23;11.50;;;1.42;;
59555;SDS011;45374;52.746;6.304;2023-02-25T16:50:56;8.70;;;1.38;;
59555;SDS011;45374;52.746;6.304;2023-02-25T16:53:23;6.03;;;1.42;;
59555;SDS011;45374;52.746;6.304;2023-02-25T16:55:56;5.45;;;0.90;;
59555;SDS011;45374;52.746;6.304;2023-02-25T16:58:23;7.70;;;1.80;;
59555;SDS011;45374;52.746;6.304;2023-02-25T17:01:00;4.18;;;1.00;;
59555;SDS011;45374;52.746;6.304;2023-02-25T17:03:37;8.13;;;1.20;;
59555;SDS011;45374;52.746;6.304;2023-02-25T17:06:14;6.22;;;1.00;;
59555;SDS011;45374;52.746;6.304;2023-02-25T17:08:45;8.45;;;1.77;;
59555;SDS011;45374;52.746;6.304;2023-02-25T17:11:15;8.48;;;1.20;;
59555;SDS011;45374;52.746;6.304;2023-02-25T17:13:42;9.23;;;1.75;;
59555;SDS011;45374;52.746;6.304;2023-02-25T17:16:28;7.32;;;1.50;;
59555;SDS011;45374;52.746;6.304;2023-02-25T17:18:57;6.38;;;1.05;;
59555;SDS011;45374;52.746;6.304;2023-02-25T17:21:37;4.88;;;1.13;;
59555;SDS011;45374;52.746;6.304;2023-02-25T17:24:11;10.48;;;1.70;;
59555;SDS011;45374;52.746;6.304;2023-02-25T17:26:39;11.13;;;3.10;;
59555;SDS011;45374;52.746;6.304;2023-02-25T17:29:11;6.60;;;1.35;;
59555;SDS011;45374;52.746;6.304;2023-02-25T17:31:51;9.05;;;1.02;;
59555;SDS011;45374;52.746;6.304;2023-02-25T17:34:24;5.38;;;0.95;;
59555;SDS011;45374;52.746;6.304;2023-02-25T17:36:54;5.18;;;0.80;;
59555;SDS011;45374;52.746;6.304;2023-02-25T17:39:23;7.90;;;0.90;;
59555;SDS011;45374;52.746;6.304;2023-02-25T17:41:49;4.15;;;1.10;;
59555;SDS011;45374;52.746;6.304;2023-02-25T17:47:03;11.70;;;1.52;;
59555;SDS011;45374;52.746;6.304;2023-02-25T17:49:31;4.40;;;1.10;;
59555;SDS011;45374;52.746;6.304;2023-02-25T17:52:03;7.07;;;1.35;;
59555;SDS011;45374;52.746;6.304;2023-02-25T17:54:32;4.55;;;1.58;;
59555;SDS011;45374;52.746;6.304;2023-02-25T17:57:08;5.43;;;1.00;;
59555;SDS011;45374;52.746;6.304;2023-02-25T17:59:40;4.45;;;1.27;;
59555;SDS011;45374;52.746;6.304;2023-02-25T18:05:07;10.52;;;1.60;;
59555;SDS011;45374;52.746;6.304;2023-02-25T18:07:32;8.45;;;1.50;;
59555;SDS011;45374;52.746;6.304;2023-02-25T18:09:58;8.25;;;2.00;;
59555;SDS011;45374;52.746;6.304;2023-02-25T18:12:26;7.28;;;1.95;;
59555;SDS011;45374;52.746;6.304;2023-02-25T18:14:57;10.07;;;2.80;;
59555;SDS011;45374;52.746;6.304;2023-02-25T18:17:32;10.40;;;2.60;;
59555;SDS011;45374;52.746;6.304;2023-02-25T18:20:01;12.70;;;5.40;;
59555;SDS011;45374;52.746;6.304;2023-02-25T18:28:00;10.63;;;2.25;;
59555;SDS011;45374;52.746;6.304;2023-02-25T18:30:27;8.93;;;1.92;;
59555;SDS011;45374;52.746;6.304;2023-02-25T18:32:55;9.65;;;1.50;;
59555;SDS011;45374;52.746;6.304;2023-02-25T18:35:21;5.32;;;1.35;;
59555;SDS011;45374;52.746;6.304;2023-02-25T18:37:48;9.05;;;1.70;;
59555;SDS011;45374;52.746;6.304;2023-02-25T18:42:46;6.22;;;1.30;;
59555;SDS011;45374;52.746;6.304;2023-02-25T18:45:13;5.68;;;1.67;;
59555;SDS011;45374;52.746;6.304;2023-02-25T18:47:43;7.13;;;1.50;;
59555;SDS011;45374;52.746;6.304;2023-02-25T18:50:09;9.00;;;1.88;;
59555;SDS011;45374;52.746;6.304;2023-02-25T18:52:36;3.03;;;0.90;;
59555;SDS011;45374;52.746;6.304;2023-02-25T18:55:03;4.47;;;1.05;;
59555;SDS011;45374;52.746;6.304;2023-02-25T18:57:30;11.25;;;1.35;;
59555;SDS011;45374;52.746;6.304;2023-02-25T18:59:55;7.70;;;1.23;;
59555;SDS011;45374;52.746;6.304;2023-02-25T19:04:54;3.30;;;1.23;;
59555;SDS011;45374;52.746;6.304;2023-02-25T19:07:24;6.65;;;0.98;;
59555;SDS011;45374;52.746;6.304;2023-02-25T19:09:51;4.93;;;0.90;;
59555;SDS011;45374;52.746;6.304;2023-02-25T19:12:17;6.40;;;1.02;;
59555;SDS011;45374;52.746;6.304;2023-02-25T19:14:44;7.10;;;1.40;;